Time;durP1;ratioP1;P1;durP2;ratioP2;P2;SDS_P1;SDS_P2;PMS_P1;PMS_P2;Temp;Humidity;BMP_temperature;BMP_pressure;BME280_temperature;BME280_humidity;BME280_pressure;Samples;Min_cycle;Max_cycle;Signal;HPM_P1;HPM_P2
2022/12/30 00:00:58;;;;;;;2.10;1.17;;;7.80;99.90;;;;;;5007755;28;20460;-74
2022/12/30 00:03:25;;;;;;;6.00;1.80;;;7.70;99.90;;;;;;5040724;28;20526;-73
2022/12/30 00:05:52;;;;;;;4.27;1.77;;;7.80;99.90;;;;;;5042391;28;20464;-74
2022/12/30 00:11:05;;;;;;;1.40;0.90;;;7.80;99.90;;;;;;5038678;28;20605;-74
2022/12/30 00:33:09;;;;;;;1.77;1.30;;;7.60;99.90;;;;;;5045834;28;20475;-73
2022/12/30 00:35:40;;;;;;;0.97;0.73;;;7.60;99.90;;;;;;5041011;28;20810;-73
2022/12/30 00:38:07;;;;;;;3.93;2.20;;;7.60;99.90;;;;;;5042251;28;20890;-73
2022/12/30 00:40:34;;;;;;;5.50;1.43;;;7.70;99.90;;;;;;5044107;28;20434;-73
2022/12/30 00:43:09;;;;;;;4.87;1.70;;;7.70;99.90;;;;;;5044074;28;20949;-74
2022/12/30 00:45:44;;;;;;;6.70;2.10;;;7.70;99.90;;;;;;5046164;28;20447;-74
2022/12/30 00:56:29;;;;;;;6.00;1.77;;;7.70;99.90;;;;;;5044852;28;20513;-73
2022/12/30 00:58:56;;;;;;;7.67;1.67;;;7.70;99.90;;;;;;5041988;28;20549;-74
2022/12/30 01:01:23;;;;;;;6.73;1.87;;;7.60;99.90;;;;;;5048688;28;20521;-74
2022/12/30 01:03:51;;;;;;;13.63;2.30;;;7.60;99.90;;;;;;5041028;28;20434;-74
2022/12/30 01:06:18;;;;;;;1.80;1.40;;;7.60;99.90;;;;;;5042365;28;20517;-74
2022/12/30 01:08:47;;;;;;;3.33;1.77;;;7.60;99.90;;;;;;5041449;28;20461;-74
2022/12/30 01:11:18;;;;;;;2.70;1.20;;;7.60;99.90;;;;;;5036729;28;20555;-74
2022/12/30 01:13:45;;;;;;;2.77;1.50;;;7.60;99.90;;;;;;5043536;28;20524;-73
2022/12/30 01:16:15;;;;;;;4.13;1.00;;;7.60;99.90;;;;;;5046844;28;20506;-73
2022/12/30 01:18:43;;;;;;;3.10;1.40;;;7.60;99.90;;;;;;5044041;28;20454;-73
2022/12/30 01:21:12;;;;;;;6.13;1.80;;;7.60;99.90;;;;;;5049495;28;20456;-74
2022/12/30 01:23:39;;;;;;;7.63;2.03;;;7.60;99.90;;;;;;5039839;28;20918;-73
2022/12/30 01:26:07;;;;;;;2.17;1.00;;;7.60;99.90;;;;;;5040461;28;20455;-74
2022/12/30 01:28:36;;;;;;;3.97;1.73;;;7.60;99.90;;;;;;5003745;28;20447;-74
2022/12/30 01:31:06;;;;;;;2.00;1.27;;;7.60;99.90;;;;;;5045515;28;20522;-73
2022/12/30 01:33:33;;;;;;;10.67;3.87;;;7.60;99.90;;;;;;5041927;28;20439;-74
2022/12/30 01:36:01;;;;;;;4.60;1.60;;;7.60;99.90;;;;;;5042589;28;20957;-74
2022/12/30 01:38:30;;;;;;;2.30;1.47;;;7.60;99.90;;;;;;5037133;28;20454;-74
2022/12/30 01:40:57;;;;;;;2.80;1.33;;;7.50;99.90;;;;;;5040715;28;20639;-74
2022/12/30 01:43:40;;;;;;;1.83;1.33;;;7.50;99.90;;;;;;5036124;28;21148;-74
2022/12/30 01:46:08;;;;;;;4.20;1.57;;;7.50;99.90;;;;;;5038600;28;20969;-74
2022/12/30 01:48:35;;;;;;;4.73;2.30;;;7.50;99.90;;;;;;5021864;28;20566;-74
2022/12/30 01:51:05;;;;;;;6.80;1.60;;;7.50;99.90;;;;;;5042042;28;20456;-73
2022/12/30 01:53:36;;;;;;;7.23;1.70;;;7.50;99.90;;;;;;5035860;28;20463;-73
2022/12/30 01:56:08;;;;;;;2.13;1.23;;;7.50;99.90;;;;;;5045101;28;20542;-74
2022/12/30 01:58:38;;;;;;;1.80;1.23;;;7.50;99.90;;;;;;5046315;28;20483;-73
2022/12/30 02:01:05;;;;;;;3.47;1.10;;;7.50;99.90;;;;;;5036212;28;20831;-74
2022/12/30 02:03:36;;;;;;;4.73;1.90;;;7.40;99.90;;;;;;5034051;28;20443;-74
2022/12/30 02:06:04;;;;;;;1.20;0.90;;;7.40;99.90;;;;;;5034127;28;20462;-74
2022/12/30 02:08:33;;;;;;;11.93;2.17;;;7.40;99.90;;;;;;5040339;28;20475;-73
2022/12/30 02:11:04;;;;;;;3.83;1.43;;;7.40;99.90;;;;;;5045822;28;20527;-74
2022/12/30 02:13:32;;;;;;;5.40;2.20;;;7.40;99.90;;;;;;5041503;28;20445;-73
2022/12/30 02:16:20;;;;;;;6.20;2.07;;;7.40;99.90;;;;;;5049426;28;20543;-74
2022/12/30 02:19:01;;;;;;;3.63;1.20;;;7.40;99.90;;;;;;5047791;28;20516;-74
2022/12/30 02:21:40;;;;;;;5.90;1.87;;;7.40;99.90;;;;;;5043768;28;20505;-74
2022/12/30 02:24:40;;;;;;;6.10;2.97;;;7.40;99.90;;;;;;5051068;28;20477;-74
2022/12/30 02:27:18;;;;;;;5.13;2.50;;;7.40;99.90;;;;;;5045365;28;23032;-74
2022/12/30 02:30:19;;;;;;;2.10;1.53;;;7.40;99.90;;;;;;5040633;28;20427;-74
2022/12/30 02:32:59;;;;;;;1.93;1.63;;;7.30;99.90;;;;;;5042895;28;20446;-73
2022/12/30 02:35:33;;;;;;;2.27;1.47;;;7.30;99.90;;;;;;5043596;28;20438;-74
2022/12/30 02:38:09;;;;;;;2.87;1.17;;;7.30;99.90;;;;;;5041574;28;20522;-74
2022/12/30 02:46:18;;;;;;;5.27;1.03;;;7.30;99.90;;;;;;5039050;28;20494;-73
2022/12/30 02:48:48;;;;;;;6.20;2.00;;;7.20;99.90;;;;;;5039480;28;20484;-74
2022/12/30 02:54:02;;;;;;;1.20;0.90;;;7.20;99.90;;;;;;5045059;28;20574;-74
2022/12/30 02:56:28;;;;;;;2.47;1.27;;;7.20;99.90;;;;;;5039335;28;21997;-74
2022/12/30 03:04:45;;;;;;;2.40;1.43;;;7.20;99.90;;;;;;5040069;28;20502;-74
2022/12/30 03:07:23;;;;;;;2.47;1.80;;;7.20;99.90;;;;;;5042538;28;20533;-74
2022/12/30 03:12:50;;;;;;;3.03;1.70;;;7.30;99.90;;;;;;5006316;28;20422;-74
2022/12/30 03:15:22;;;;;;;4.13;1.50;;;7.30;99.90;;;;;;5037288;28;20422;-74
2022/12/30 03:17:50;;;;;;;2.33;1.40;;;7.30;99.90;;;;;;5039539;28;20493;-73
2022/12/30 03:20:21;;;;;;;7.90;1.10;;;7.30;99.90;;;;;;5033795;28;20543;-75
2022/12/30 03:28:22;;;;;;;1.60;1.27;;;7.30;99.90;;;;;;5024606;28;21472;-74
2022/12/30 03:30:54;;;;;;;10.07;1.40;;;7.20;99.90;;;;;;5037785;28;20484;-74
2022/12/30 03:33:22;;;;;;;1.37;1.10;;;7.20;99.90;;;;;;5046029;28;20456;-73
2022/12/30 03:35:55;;;;;;;7.03;1.60;;;7.20;99.90;;;;;;5040293;28;20460;-74
2022/12/30 03:38:28;;;;;;;6.83;1.80;;;7.20;99.90;;;;;;5036713;28;20462;-73
2022/12/30 03:40:58;;;;;;;4.10;1.33;;;7.20;99.90;;;;;;5041031;28;21000;-73
2022/12/30 03:43:27;;;;;;;1.50;1.30;;;7.20;99.90;;;;;;5044772;28;20522;-74
2022/12/30 03:45:54;;;;;;;2.67;1.77;;;7.20;99.90;;;;;;5039153;28;20434;-74
2022/12/30 03:48:21;;;;;;;2.57;1.90;;;7.20;99.90;;;;;;5045413;28;20475;-74
2022/12/30 03:50:48;;;;;;;4.90;1.67;;;7.30;99.90;;;;;;5042051;28;20520;-74
2022/12/30 03:53:16;;;;;;;1.97;1.50;;;7.30;99.90;;;;;;5034684;28;20550;-73
2022/12/30 03:55:43;;;;;;;3.30;1.63;;;7.20;99.90;;;;;;5041012;28;20548;-73
2022/12/30 03:58:12;;;;;;;5.27;1.60;;;7.20;99.90;;;;;;5046416;28;20476;-73
2022/12/30 04:00:38;;;;;;;4.37;1.40;;;7.20;99.90;;;;;;5036374;28;20819;-73
2022/12/30 04:03:05;;;;;;;1.50;1.17;;;7.10;99.90;;;;;;5042148;28;20474;-74
2022/12/30 04:05:32;;;;;;;1.60;1.50;;;7.10;99.90;;;;;;5040431;28;20443;-73
2022/12/30 04:07:59;;;;;;;7.37;1.70;;;7.10;99.90;;;;;;5031224;28;20939;-73
2022/12/30 04:10:29;;;;;;;3.10;1.40;;;7.10;99.90;;;;;;5044629;28;20552;-73
2022/12/30 04:12:56;;;;;;;2.00;1.63;;;7.10;99.90;;;;;;5046578;28;20805;-73
2022/12/30 04:15:23;;;;;;;4.60;1.53;;;7.10;99.90;;;;;;5040631;28;20460;-73
2022/12/30 04:17:50;;;;;;;4.40;1.00;;;7.10;99.90;;;;;;5046841;28;20455;-73
2022/12/30 04:20:17;;;;;;;2.77;1.43;;;7.10;99.90;;;;;;5040612;28;20452;-73
2022/12/30 04:22:44;;;;;;;9.97;1.70;;;7.10;99.90;;;;;;5040948;28;20760;-74
2022/12/30 04:25:11;;;;;;;1.30;0.97;;;7.10;99.90;;;;;;5045872;28;20896;-74
2022/12/30 04:27:39;;;;;;;1.93;1.40;;;7.10;99.90;;;;;;5042523;28;20560;-74
2022/12/30 04:30:07;;;;;;;10.70;1.20;;;7.00;99.90;;;;;;5044398;28;20808;-74
2022/12/30 04:32:34;;;;;;;1.20;1.00;;;7.10;99.90;;;;;;5035525;28;20511;-74
2022/12/30 04:35:01;;;;;;;3.30;1.00;;;7.00;99.90;;;;;;5036499;28;21284;-74
2022/12/30 04:37:28;;;;;;;1.50;0.93;;;7.10;99.90;;;;;;5043398;28;20551;-74
2022/12/30 04:39:55;;;;;;;10.43;1.60;;;7.10;99.90;;;;;;5018587;28;20583;-73
2022/12/30 04:42:21;;;;;;;1.30;1.20;;;7.00;99.90;;;;;;5034069;28;20829;-73
2022/12/30 04:44:50;;;;;;;6.93;1.77;;;7.00;99.90;;;;;;5037177;28;20480;-74
2022/12/30 04:47:16;;;;;;;3.30;1.80;;;7.00;99.90;;;;;;5042284;28;20804;-74
2022/12/30 04:49:44;;;;;;;4.43;1.33;;;7.00;99.90;;;;;;5037213;28;20427;-73
2022/12/30 04:52:11;;;;;;;2.63;1.53;;;7.00;99.90;;;;;;5044779;28;20487;-74
2022/12/30 04:54:39;;;;;;;9.43;3.27;;;6.90;99.90;;;;;;5039847;28;20562;-74
2022/12/30 04:57:06;;;;;;;1.50;1.00;;;7.00;99.90;;;;;;5037724;28;20442;-74
2022/12/30 04:59:32;;;;;;;5.23;1.57;;;7.00;99.90;;;;;;5041361;28;20602;-74
2022/12/30 05:02:01;;;;;;;1.60;0.90;;;6.90;99.90;;;;;;5031888;28;20445;-73
2022/12/30 05:04:28;;;;;;;2.70;1.63;;;6.90;99.90;;;;;;5038857;28;21123;-73
2022/12/30 05:06:55;;;;;;;2.90;1.83;;;6.80;99.90;;;;;;5041036;28;20464;-73
2022/12/30 05:09:22;;;;;;;8.33;2.60;;;6.70;99.90;;;;;;5040390;28;20430;-74
2022/12/30 05:11:49;;;;;;;4.50;1.53;;;6.60;99.90;;;;;;5043765;28;20461;-73
2022/12/30 05:14:16;;;;;;;5.60;1.10;;;6.50;99.90;;;;;;5043783;28;20527;-74
2022/12/30 05:16:43;;;;;;;1.80;0.90;;;6.50;99.90;;;;;;5047075;28;20459;-74
2022/12/30 05:19:12;;;;;;;5.13;1.43;;;6.50;99.90;;;;;;5045566;28;20497;-74
2022/12/30 05:21:39;;;;;;;4.70;1.90;;;6.40;99.90;;;;;;5047629;28;20467;-74
2022/12/30 05:26:51;;;;;;;3.57;1.57;;;6.50;99.90;;;;;;5040116;28;20421;-74
2022/12/30 05:29:17;;;;;;;5.33;1.53;;;6.40;99.90;;;;;;5041719;28;20737;-74
2022/12/30 05:31:44;;;;;;;1.30;1.20;;;6.40;99.90;;;;;;5043914;28;20457;-74
2022/12/30 05:34:13;;;;;;;1.80;1.00;;;6.40;99.90;;;;;;5046639;28;21473;-73
2022/12/30 05:36:40;;;;;;;2.07;1.30;;;6.40;99.90;;;;;;5048101;28;20499;-74
2022/12/30 05:39:07;;;;;;;2.70;1.40;;;6.50;99.90;;;;;;5042367;28;20483;-73
2022/12/30 05:41:34;;;;;;;7.20;2.07;;;6.50;99.90;;;;;;5045158;28;20438;-73
2022/12/30 05:44:01;;;;;;;2.53;1.40;;;6.50;99.90;;;;;;5045773;28;20985;-73
2022/12/30 05:46:28;;;;;;;1.20;0.97;;;6.50;99.90;;;;;;5040692;28;20465;-73
2022/12/30 05:48:55;;;;;;;6.30;1.53;;;6.50;99.90;;;;;;5038548;28;20567;-73
2022/12/30 05:51:24;;;;;;;11.00;2.13;;;6.60;99.90;;;;;;5043491;28;20460;-74
2022/12/30 05:53:53;;;;;;;2.20;1.60;;;6.50;99.90;;;;;;5040874;28;22022;-73
2022/12/30 05:56:20;;;;;;;3.47;1.53;;;6.40;99.90;;;;;;5039998;28;20540;-73
2022/12/30 05:58:46;;;;;;;4.77;1.17;;;6.40;99.90;;;;;;5044429;28;20489;-74
2022/12/30 06:01:14;;;;;;;2.40;1.60;;;6.40;99.90;;;;;;5044587;28;20464;-74
2022/12/30 06:03:41;;;;;;;2.23;1.90;;;6.40;99.90;;;;;;5037962;28;20460;-74
2022/12/30 06:06:09;;;;;;;0.90;0.67;;;6.40;99.90;;;;;;5046856;28;20523;-73
2022/12/30 06:08:39;;;;;;;10.13;1.30;;;6.40;99.90;;;;;;5043656;28;20479;-74
2022/12/30 06:11:06;;;;;;;5.63;3.90;;;6.30;99.90;;;;;;5042586;28;20460;-73
2022/12/30 06:13:36;;;;;;;0.90;0.70;;;6.30;99.90;;;;;;5035997;28;21411;-73
2022/12/30 06:16:03;;;;;;;1.20;0.90;;;6.30;99.90;;;;;;5040701;28;20908;-74
2022/12/30 06:18:30;;;;;;;1.97;1.23;;;6.30;99.90;;;;;;5033349;28;20579;-73
2022/12/30 06:20:58;;;;;;;5.83;1.50;;;6.30;99.90;;;;;;5035782;28;20437;-74
2022/12/30 06:23:26;;;;;;;1.87;1.33;;;6.30;99.90;;;;;;5043051;28;20520;-73
2022/12/30 06:25:56;;;;;;;4.97;1.30;;;6.30;99.90;;;;;;5044155;28;20468;-74
2022/12/30 06:28:25;;;;;;;4.13;1.33;;;6.20;99.90;;;;;;5027141;28;20457;-73
2022/12/30 06:30:52;;;;;;;2.80;1.83;;;6.30;99.90;;;;;;5053501;28;20426;-73
2022/12/30 06:33:19;;;;;;;1.10;0.93;;;6.30;99.90;;;;;;5042875;28;20455;-73
2022/12/30 06:35:47;;;;;;;1.23;1.10;;;6.20;99.90;;;;;;5041333;28;20488;-73
2022/12/30 06:38:14;;;;;;;2.27;1.60;;;6.30;99.90;;;;;;5042122;28;20490;-73
2022/12/30 06:40:44;;;;;;;2.13;1.10;;;6.30;99.90;;;;;;5036477;28;20464;-73
2022/12/30 06:43:12;;;;;;;1.10;1.00;;;6.20;99.90;;;;;;5048731;28;20464;-74
2022/12/30 06:45:39;;;;;;;2.53;1.23;;;6.40;99.90;;;;;;5040502;28;22301;-73
2022/12/30 06:48:06;;;;;;;3.23;1.40;;;6.40;99.90;;;;;;5034265;28;20489;-74
2022/12/30 06:50:33;;;;;;;3.77;2.80;;;6.40;99.90;;;;;;5041284;28;20428;-73
2022/12/30 06:53:00;;;;;;;6.13;1.57;;;6.40;99.90;;;;;;5039140;28;20461;-73
2022/12/30 06:55:27;;;;;;;8.50;1.60;;;6.40;99.90;;;;;;5037863;28;20445;-73
2022/12/30 06:57:54;;;;;;;2.20;2.00;;;6.40;99.90;;;;;;5042490;28;20480;-73
2022/12/30 07:00:22;;;;;;;2.10;1.40;;;6.40;99.90;;;;;;5037801;28;20938;-73
2022/12/30 07:02:49;;;;;;;5.17;1.40;;;6.30;99.90;;;;;;5043771;28;20878;-73
2022/12/30 07:05:16;;;;;;;8.30;1.50;;;6.30;99.90;;;;;;5040629;28;20518;-73
2022/12/30 07:07:43;;;;;;;8.30;1.40;;;6.40;99.90;;;;;;5044880;28;20524;-73
2022/12/30 07:10:13;;;;;;;6.57;1.90;;;6.40;99.90;;;;;;5038974;28;20870;-73
2022/12/30 07:12:43;;;;;;;3.93;1.13;;;6.40;99.90;;;;;;5044287;28;20427;-73
2022/12/30 07:15:11;;;;;;;3.13;1.80;;;6.40;99.90;;;;;;5041180;28;20453;-73
2022/12/30 07:17:40;;;;;;;1.30;1.20;;;6.40;99.90;;;;;;5035185;28;20454;-74
2022/12/30 07:20:07;;;;;;;2.10;1.33;;;6.50;99.90;;;;;;5032622;28;21032;-73
2022/12/30 07:22:34;;;;;;;1.60;1.00;;;6.50;99.90;;;;;;5047016;28;20464;-73
2022/12/30 07:25:01;;;;;;;4.50;1.23;;;6.50;99.90;;;;;;5039865;28;20517;-73
2022/12/30 07:27:28;;;;;;;1.20;0.80;;;6.40;99.90;;;;;;5048470;28;20482;-73
2022/12/30 07:29:55;;;;;;;16.03;1.10;;;6.50;99.90;;;;;;5045157;28;20512;-74
2022/12/30 07:32:22;;;;;;;1.57;1.40;;;6.50;99.90;;;;;;5008459;28;20470;-74
2022/12/30 07:34:52;;;;;;;1.00;0.90;;;6.60;99.90;;;;;;5050185;28;20501;-74
2022/12/30 07:37:19;;;;;;;2.20;1.53;;;6.70;99.90;;;;;;5053720;28;20450;-73
2022/12/30 07:39:46;;;;;;;1.43;1.07;;;6.70;99.90;;;;;;5059342;28;20541;-74
2022/12/30 07:42:13;;;;;;;6.27;1.60;;;6.70;99.90;;;;;;5027839;28;20460;-74
2022/12/30 07:44:40;;;;;;;2.97;1.40;;;6.80;99.90;;;;;;5039079;28;20446;-73
2022/12/30 07:47:07;;;;;;;14.23;2.23;;;6.70;99.90;;;;;;5041540;28;20449;-73
2022/12/30 07:49:34;;;;;;;4.70;1.23;;;6.70;99.90;;;;;;5045411;28;20436;-74
2022/12/30 07:52:02;;;;;;;5.90;1.10;;;6.70;99.90;;;;;;5049035;28;20530;-73
2022/12/30 07:54:29;;;;;;;3.00;1.30;;;6.80;99.90;;;;;;5054829;28;20520;-73
2022/12/30 07:56:56;;;;;;;7.43;1.13;;;6.80;99.90;;;;;;5045600;28;20505;-73
2022/12/30 07:59:23;;;;;;;3.57;1.00;;;6.90;99.90;;;;;;5055437;28;20460;-73
2022/12/30 08:01:50;;;;;;;9.10;1.73;;;6.90;99.90;;;;;;5048563;28;20542;-73
2022/12/30 08:04:17;;;;;;;1.37;1.10;;;6.90;99.90;;;;;;5049462;28;20945;-73
2022/12/30 08:06:44;;;;;;;7.30;1.60;;;7.00;99.90;;;;;;5045928;28;20948;-73
2022/12/30 08:09:13;;;;;;;1.20;0.90;;;7.00;99.90;;;;;;5048440;28;20480;-73
2022/12/30 08:11:40;;;;;;;2.87;2.17;;;7.00;99.90;;;;;;5047411;28;20848;-73
2022/12/30 08:14:07;;;;;;;1.50;1.40;;;7.00;99.90;;;;;;5044804;28;20476;-74
2022/12/30 08:16:34;;;;;;;2.47;1.30;;;7.10;99.90;;;;;;5042793;28;20446;-73
2022/12/30 08:19:01;;;;;;;2.10;1.90;;;7.00;99.90;;;;;;5040485;28;20475;-73
2022/12/30 08:21:29;;;;;;;1.10;0.80;;;7.10;99.90;;;;;;5043262;28;20841;-73
2022/12/30 08:23:55;;;;;;;1.00;0.77;;;7.10;99.90;;;;;;5044401;28;20525;-73
2022/12/30 08:26:24;;;;;;;3.70;1.70;;;7.10;99.90;;;;;;5047655;28;20431;-74
2022/12/30 08:28:52;;;;;;;5.20;2.20;;;7.10;99.90;;;;;;5039691;28;20993;-74
2022/12/30 08:31:22;;;;;;;2.50;2.10;;;7.30;99.90;;;;;;5046035;28;20437;-73
2022/12/30 08:33:49;;;;;;;1.50;1.27;;;7.30;99.90;;;;;;5044731;28;20442;-73
2022/12/30 08:36:18;;;;;;;0.90;0.70;;;7.30;99.90;;;;;;5045837;28;20510;-73
2022/12/30 08:38:48;;;;;;;1.70;1.00;;;7.30;99.90;;;;;;5051685;28;20485;-73
2022/12/30 08:41:18;;;;;;;5.53;1.70;;;7.40;99.90;;;;;;5053954;28;20636;-74
2022/12/30 08:43:47;;;;;;;4.63;1.40;;;7.40;99.90;;;;;;5042799;28;20468;-73
2022/12/30 08:46:16;;;;;;;2.03;1.67;;;7.60;99.90;;;;;;5065786;28;20449;-72
2022/12/30 08:48:43;;;;;;;2.93;1.00;;;7.60;99.90;;;;;;5053032;28;20543;-73
2022/12/30 08:51:11;;;;;;;4.90;1.57;;;7.70;99.90;;;;;;5049751;28;20933;-74
2022/12/30 08:53:38;;;;;;;3.00;1.27;;;7.80;99.90;;;;;;5049682;28;20923;-73
2022/12/30 08:56:08;;;;;;;1.10;1.00;;;7.80;99.90;;;;;;5046888;28;20448;-74
2022/12/30 08:58:36;;;;;;;12.43;2.83;;;7.80;99.90;;;;;;5051111;28;20446;-75
2022/12/30 09:01:10;;;;;;;1.20;0.97;;;7.80;99.90;;;;;;5053382;28;21241;-73
2022/12/30 09:03:37;;;;;;;1.00;0.87;;;8.00;99.90;;;;;;5050585;28;20417;-74
2022/12/30 09:06:05;;;;;;;2.03;0.80;;;7.90;99.90;;;;;;5048260;28;20560;-74
2022/12/30 09:08:32;;;;;;;2.57;1.10;;;8.00;99.90;;;;;;5042771;28;20576;-74
2022/12/30 09:11:00;;;;;;;0.90;0.77;;;8.10;99.90;;;;;;5049861;28;20478;-74
2022/12/30 09:13:27;;;;;;;1.50;1.23;;;8.10;99.90;;;;;;5042758;28;20491;-73
2022/12/30 09:15:54;;;;;;;1.10;1.00;;;8.00;99.90;;;;;;5047817;28;20960;-73
2022/12/30 09:18:23;;;;;;;3.80;1.27;;;8.00;99.90;;;;;;5032756;28;20530;-74
2022/12/30 09:20:51;;;;;;;1.13;1.00;;;8.10;99.90;;;;;;5048270;28;20659;-74
2022/12/30 09:23:18;;;;;;;6.80;3.80;;;8.20;99.90;;;;;;5054307;28;20464;-74
2022/12/30 09:25:45;;;;;;;1.00;0.70;;;8.20;99.90;;;;;;5044007;28;20456;-74
2022/12/30 09:28:12;;;;;;;6.83;3.83;;;8.30;99.90;;;;;;5035820;28;20484;-74
2022/12/30 09:30:39;;;;;;;6.03;2.90;;;8.30;99.90;;;;;;5036118;28;20952;-73
2022/12/30 09:33:07;;;;;;;1.27;1.17;;;8.40;99.90;;;;;;5036467;28;20521;-74
2022/12/30 09:35:35;;;;;;;2.37;2.03;;;8.30;99.90;;;;;;5037706;28;20888;-73
2022/12/30 09:38:03;;;;;;;4.43;1.30;;;8.40;99.90;;;;;;5043925;28;20487;-73
2022/12/30 09:40:52;;;;;;;2.60;1.20;;;8.50;99.90;;;;;;5034162;28;20560;-73
2022/12/30 09:43:25;;;;;;;1.10;1.00;;;8.60;99.90;;;;;;5044080;28;20948;-74
2022/12/30 09:46:25;;;;;;;2.50;0.70;;;8.70;99.90;;;;;;5043929;28;20459;-74
2022/12/30 09:48:59;;;;;;;1.20;1.03;;;8.70;99.90;;;;;;5036073;28;20482;-74
2022/12/30 09:51:40;;;;;;;2.33;0.90;;;8.70;99.90;;;;;;5044839;28;20453;-74
2022/12/30 09:54:14;;;;;;;1.43;1.30;;;8.70;99.90;;;;;;5053206;28;20524;-74
2022/12/30 09:56:43;;;;;;;2.50;1.40;;;8.80;99.90;;;;;;5043090;28;20459;-74
2022/12/30 09:59:18;;;;;;;6.60;1.67;;;8.90;99.90;;;;;;5043195;28;20508;-74
2022/12/30 10:01:48;;;;;;;1.97;0.90;;;9.00;99.90;;;;;;5045598;28;20551;-73
2022/12/30 10:04:18;;;;;;;1.00;0.80;;;9.10;99.90;;;;;;5041495;28;20929;-73
2022/12/30 10:07:02;;;;;;;1.00;0.90;;;9.00;99.90;;;;;;5039728;28;20439;-74
2022/12/30 10:09:48;;;;;;;5.37;1.60;;;9.10;99.90;;;;;;5032530;28;20431;-73
2022/12/30 10:12:37;;;;;;;5.07;1.30;;;9.20;99.90;;;;;;5030865;28;20457;-73
2022/12/30 10:15:22;;;;;;;1.70;1.27;;;9.30;99.90;;;;;;5040488;28;20499;-73
2022/12/30 10:18:06;;;;;;;1.37;1.00;;;9.30;99.90;;;;;;5037962;28;20450;-74
2022/12/30 10:20:48;;;;;;;2.07;1.40;;;9.50;99.90;;;;;;5046178;28;20480;-73
2022/12/30 10:23:29;;;;;;;1.30;1.20;;;9.40;99.90;;;;;;5045596;28;20550;-74
2022/12/30 10:26:06;;;;;;;1.40;1.30;;;9.40;99.90;;;;;;5031394;28;20463;-74
2022/12/30 10:28:37;;;;;;;1.93;1.17;;;9.50;99.90;;;;;;5038538;28;20492;-74
2022/12/30 10:31:07;;;;;;;2.23;1.10;;;9.50;99.90;;;;;;5035242;28;20916;-74
2022/12/30 10:33:36;;;;;;;1.83;1.20;;;9.50;99.90;;;;;;5045571;28;20782;-74
2022/12/30 10:36:14;;;;;;;9.03;1.67;;;9.60;99.90;;;;;;5054316;28;20459;-74
2022/12/30 10:38:43;;;;;;;1.73;1.63;;;9.60;99.90;;;;;;5042467;28;20473;-75
2022/12/30 10:41:23;;;;;;;2.23;1.10;;;9.80;99.90;;;;;;5048159;28;20583;-74
2022/12/30 10:44:05;;;;;;;4.20;2.47;;;9.80;99.90;;;;;;5042287;28;20452;-74
2022/12/30 10:46:53;;;;;;;2.83;1.60;;;9.80;99.90;;;;;;5036393;28;20535;-74
2022/12/30 10:49:34;;;;;;;1.73;0.97;;;9.80;99.90;;;;;;5043566;28;20824;-74
2022/12/30 10:52:02;;;;;;;15.00;1.50;;;9.80;99.90;;;;;;5009716;28;20479;-74
2022/12/30 10:54:30;;;;;;;1.20;0.90;;;9.90;99.90;;;;;;5038561;28;20460;-74
2022/12/30 10:57:00;;;;;;;1.67;0.90;;;10.10;99.90;;;;;;5044369;28;20506;-74
2022/12/30 10:59:29;;;;;;;1.50;1.20;;;10.20;99.90;;;;;;5042256;28;20728;-74
2022/12/30 11:02:13;;;;;;;1.10;0.87;;;10.20;99.90;;;;;;5051016;28;20557;-74
2022/12/30 11:04:42;;;;;;;3.83;1.13;;;10.30;99.90;;;;;;5036409;28;20980;-74
2022/12/30 11:07:12;;;;;;;1.00;0.90;;;10.30;99.90;;;;;;5030853;28;20480;-74
2022/12/30 11:09:46;;;;;;;2.97;0.83;;;10.10;99.90;;;;;;4999992;28;20609;-74
2022/12/30 11:15:20;;;;;;;1.20;0.80;;;10.30;99.90;;;;;;5039370;28;21025;-74
2022/12/30 11:18:00;;;;;;;1.00;0.80;;;10.20;99.90;;;;;;5032370;28;20508;-74
2022/12/30 11:20:36;;;;;;;1.47;1.00;;;10.20;99.90;;;;;;5038755;28;20481;-74
2022/12/30 11:23:07;;;;;;;2.50;0.90;;;10.20;99.90;;;;;;5039164;28;20442;-74
2022/12/30 11:25:44;;;;;;;1.80;1.10;;;10.10;99.90;;;;;;5027341;28;20460;-73
2022/12/30 11:28:16;;;;;;;1.30;1.00;;;10.00;99.90;;;;;;5033614;28;20476;-74
2022/12/30 11:30:57;;;;;;;3.97;2.80;;;9.90;99.90;;;;;;5031455;28;20828;-73
2022/12/30 11:33:31;;;;;;;1.20;0.90;;;10.00;99.90;;;;;;5034248;28;20471;-75
2022/12/30 11:36:17;;;;;;;2.40;1.40;;;10.10;99.90;;;;;;5036272;28;20466;-74
2022/12/30 11:38:46;;;;;;;2.03;0.90;;;10.20;99.90;;;;;;5027764;28;20494;-73
2022/12/30 11:41:26;;;;;;;1.30;1.07;;;10.20;99.90;;;;;;5039270;28;20492;-73
2022/12/30 11:44:35;;;;;;;5.17;1.83;;;10.10;99.90;;;;;;5038712;28;20451;-74
2022/12/30 11:47:06;;;;;;;1.80;1.30;;;10.20;99.90;;;;;;5032139;28;20553;-74
2022/12/30 11:49:38;;;;;;;1.10;1.00;;;10.30;99.90;;;;;;5031936;28;20547;-74
2022/12/30 11:52:11;;;;;;;4.50;1.47;;;10.10;99.90;;;;;;5029914;28;20431;-74
2022/12/30 11:54:43;;;;;;;3.23;1.03;;;10.00;99.90;;;;;;5030785;28;20576;-75
2022/12/30 11:57:26;;;;;;;12.43;3.10;;;9.90;99.90;;;;;;5042620;28;21323;-75
2022/12/30 11:59:56;;;;;;;1.27;0.97;;;10.00;99.90;;;;;;5047582;28;20434;-74
2022/12/30 12:02:27;;;;;;;1.50;1.27;;;10.00;99.90;;;;;;5048903;28;21058;-74
2022/12/30 12:04:54;;;;;;;1.50;1.10;;;9.90;99.90;;;;;;5045765;28;20868;-74
2022/12/30 12:07:26;;;;;;;2.37;1.20;;;9.90;99.90;;;;;;5043482;28;20910;-74
2022/12/30 12:10:04;;;;;;;3.90;1.80;;;9.90;99.90;;;;;;5044641;28;20422;-74
2022/12/30 12:12:38;;;;;;;1.30;0.90;;;9.80;99.90;;;;;;5047343;28;20498;-74
2022/12/30 12:15:18;;;;;;;6.90;1.30;;;9.70;99.90;;;;;;5045762;28;21163;-75
2022/12/30 12:17:52;;;;;;;2.10;1.33;;;9.70;99.90;;;;;;5050369;28;20545;-74
2022/12/30 12:20:34;;;;;;;4.73;2.00;;;9.80;99.90;;;;;;5048237;28;20473;-74
2022/12/30 12:23:12;;;;;;;1.63;1.43;;;9.70;99.90;;;;;;5053434;28;20472;-74
2022/12/30 12:25:43;;;;;;;2.30;1.40;;;9.80;99.90;;;;;;5049789;28;20513;-75
2022/12/30 12:28:12;;;;;;;1.20;0.90;;;9.80;99.90;;;;;;5012763;28;21043;-74
2022/12/30 12:30:58;;;;;;;3.33;1.00;;;9.80;99.90;;;;;;5046247;28;20939;-74
2022/12/30 12:33:31;;;;;;;2.23;2.00;;;9.80;99.90;;;;;;5050775;28;20532;-75
2022/12/30 12:36:06;;;;;;;5.63;1.57;;;9.70;99.90;;;;;;5050034;28;20430;-74
2022/12/30 12:38:44;;;;;;;4.13;1.73;;;9.70;99.90;;;;;;5041676;28;20544;-75
2022/12/30 12:41:24;;;;;;;3.37;1.00;;;9.70;99.90;;;;;;5044754;28;20507;-75
2022/12/30 12:44:11;;;;;;;1.70;1.30;;;9.60;99.90;;;;;;5018958;28;20459;-74
2022/12/30 12:46:54;;;;;;;1.20;0.90;;;9.60;99.90;;;;;;5047027;28;20439;-74
2022/12/30 12:49:42;;;;;;;2.00;1.13;;;9.70;99.90;;;;;;5010179;28;20458;-75
2022/12/30 12:52:22;;;;;;;1.47;1.10;;;9.70;99.90;;;;;;5048606;28;20525;-74
2022/12/30 12:55:15;;;;;;;3.30;1.10;;;9.70;99.90;;;;;;5045687;28;20809;-74
2022/12/30 12:57:51;;;;;;;3.00;1.33;;;9.70;99.90;;;;;;5046756;28;20484;-74
2022/12/30 13:00:21;;;;;;;4.70;2.13;;;9.80;99.90;;;;;;5049402;28;20546;-75
2022/12/30 13:03:33;;;;;;;1.50;1.03;;;9.80;99.90;;;;;;5051343;28;20475;-74
2022/12/30 13:06:10;;;;;;;3.13;1.57;;;9.80;99.90;;;;;;5032202;28;20510;-74
2022/12/30 13:09:03;;;;;;;1.50;1.00;;;9.70;99.90;;;;;;5033995;28;20521;-74
2022/12/30 13:11:41;;;;;;;1.70;1.47;;;9.80;99.90;;;;;;5035958;28;20452;-74
2022/12/30 13:14:22;;;;;;;1.47;1.37;;;9.80;99.90;;;;;;5037077;28;20550;-75
2022/12/30 13:16:55;;;;;;;3.93;1.20;;;10.00;99.90;;;;;;5004553;28;20511;-74
2022/12/30 13:19:28;;;;;;;1.20;0.90;;;10.10;99.90;;;;;;5041715;28;20554;-74
2022/12/30 13:21:58;;;;;;;1.80;1.33;;;10.00;99.90;;;;;;5041407;28;20471;-74
2022/12/30 13:24:35;;;;;;;2.40;1.10;;;10.10;99.90;;;;;;5040609;28;20462;-75
2022/12/30 13:27:05;;;;;;;1.00;0.70;;;10.10;99.90;;;;;;5047670;28;20487;-73
2022/12/30 13:29:36;;;;;;;1.20;1.00;;;10.10;99.90;;;;;;5038239;28;20955;-73
2022/12/30 13:32:11;;;;;;;7.70;1.30;;;10.20;99.90;;;;;;5042979;28;20463;-74
2022/12/30 13:34:45;;;;;;;1.40;0.83;;;10.10;99.90;;;;;;5044170;28;20467;-75
2022/12/30 13:37:17;;;;;;;1.17;0.97;;;10.10;99.90;;;;;;5039732;28;20476;-74
2022/12/30 13:39:49;;;;;;;1.50;0.93;;;10.20;99.90;;;;;;5044667;28;20587;-73
2022/12/30 13:42:40;;;;;;;1.33;0.90;;;10.30;99.90;;;;;;5050252;28;20599;-74
2022/12/30 13:45:22;;;;;;;3.20;1.00;;;10.30;99.90;;;;;;5044439;28;20520;-74
2022/12/30 13:48:02;;;;;;;2.33;1.13;;;10.40;99.90;;;;;;5041522;28;20549;-74
2022/12/30 13:50:32;;;;;;;1.13;1.03;;;10.40;99.90;;;;;;5043318;28;20631;-75
2022/12/30 13:53:03;;;;;;;1.33;0.97;;;10.30;99.90;;;;;;5036325;28;20456;-75
2022/12/30 13:55:33;;;;;;;1.87;1.30;;;10.30;99.90;;;;;;5041369;28;20597;-74
2022/12/30 13:58:08;;;;;;;1.37;1.27;;;10.20;99.90;;;;;;5039311;28;20941;-75
2022/12/30 14:00:39;;;;;;;1.03;0.90;;;10.20;99.90;;;;;;5038532;28;20463;-74
2022/12/30 14:03:15;;;;;;;1.27;0.83;;;10.10;99.90;;;;;;5032466;28;20949;-74
2022/12/30 14:06:00;;;;;;;1.47;1.10;;;10.00;99.90;;;;;;5032010;28;20958;-74
2022/12/30 14:08:50;;;;;;;1.10;0.90;;;9.80;99.90;;;;;;5028003;28;20474;-74
2022/12/30 14:11:18;;;;;;;1.93;1.00;;;9.60;99.90;;;;;;5033615;28;20434;-75
2022/12/30 14:14:07;;;;;;;3.37;1.13;;;9.50;99.90;;;;;;5027275;28;20479;-74
2022/12/30 14:16:50;;;;;;;6.33;1.20;;;9.40;99.90;;;;;;5039152;28;20500;-74